sensor_id;sensor_type;location;lat;lon;timestamp;pressure;altitude;pressure_sealevel;temperature
24201;BMP280;2801;50.972;7.856;2023-04-27T00:01:40;97791.81;;;6.82
24201;BMP280;2801;50.972;7.856;2023-04-27T00:04:07;97789.75;;;6.79
24201;BMP280;2801;50.972;7.856;2023-04-27T00:06:34;97786.66;;;6.72
24201;BMP280;2801;50.972;7.856;2023-04-27T00:09:01;97784.56;;;6.69
24201;BMP280;2801;50.972;7.856;2023-04-27T00:11:29;97789.97;;;6.64
24201;BMP280;2801;50.972;7.856;2023-04-27T00:13:56;97778.00;;;6.61
24201;BMP280;2801;50.972;7.856;2023-04-27T00:16:23;97786.72;;;6.67
24201;BMP280;2801;50.972;7.856;2023-04-27T00:18:50;97789.91;;;6.69
24201;BMP280;2801;50.972;7.856;2023-04-27T00:21:18;97783.19;;;6.71
24201;BMP280;2801;50.972;7.856;2023-04-27T00:23:45;97789.03;;;6.73
24201;BMP280;2801;50.972;7.856;2023-04-27T00:26:12;97787.16;;;6.74
24201;BMP280;2801;50.972;7.856;2023-04-27T00:28:39;97790.75;;;6.64
24201;BMP280;2801;50.972;7.856;2023-04-27T00:31:06;97787.88;;;6.61
24201;BMP280;2801;50.972;7.856;2023-04-27T00:33:33;97782.34;;;6.57
24201;BMP280;2801;50.972;7.856;2023-04-27T00:36:01;97783.78;;;6.50
24201;BMP280;2801;50.972;7.856;2023-04-27T00:38:29;97774.28;;;6.44
24201;BMP280;2801;50.972;7.856;2023-04-27T00:41:07;97779.59;;;6.44
24201;BMP280;2801;50.972;7.856;2023-04-27T00:43:43;97782.56;;;6.42
24201;BMP280;2801;50.972;7.856;2023-04-27T00:46:12;97792.56;;;6.32
24201;BMP280;2801;50.972;7.856;2023-04-27T00:48:40;97783.66;;;6.23
24201;BMP280;2801;50.972;7.856;2023-04-27T00:51:07;97785.31;;;6.19
24201;BMP280;2801;50.972;7.856;2023-04-27T00:53:36;97777.66;;;6.12
24201;BMP280;2801;50.972;7.856;2023-04-27T00:56:06;97784.56;;;6.13
24201;BMP280;2801;50.972;7.856;2023-04-27T00:58:33;97780.81;;;6.14
24201;BMP280;2801;50.972;7.856;2023-04-27T01:01:00;97781.91;;;6.13
24201;BMP280;2801;50.972;7.856;2023-04-27T01:03:29;97788.00;;;6.14
24201;BMP280;2801;50.972;7.856;2023-04-27T01:05:56;97795.22;;;6.13
24201;BMP280;2801;50.972;7.856;2023-04-27T01:08:30;97795.22;;;6.13
24201;BMP280;2801;50.972;7.856;2023-04-27T01:10:57;97799.19;;;6.16
24201;BMP280;2801;50.972;7.856;2023-04-27T01:13:23;97798.63;;;6.19
24201;BMP280;2801;50.972;7.856;2023-04-27T01:15:50;97808.09;;;6.25
24201;BMP280;2801;50.972;7.856;2023-04-27T01:18:17;97805.97;;;6.27
24201;BMP280;2801;50.972;7.856;2023-04-27T01:20:45;97805.06;;;6.31
24201;BMP280;2801;50.972;7.856;2023-04-27T01:23:13;97811.19;;;6.32
24201;BMP280;2801;50.972;7.856;2023-04-27T01:25:43;97812.28;;;6.31
24201;BMP280;2801;50.972;7.856;2023-04-27T01:28:10;97801.13;;;6.29
24201;BMP280;2801;50.972;7.856;2023-04-27T01:30:38;97796.44;;;6.21
24201;BMP280;2801;50.972;7.856;2023-04-27T01:33:05;97812.28;;;6.31
24201;BMP280;2801;50.972;7.856;2023-04-27T01:35:32;97804.03;;;6.32
24201;BMP280;2801;50.972;7.856;2023-04-27T01:37:59;97802.66;;;6.35
24201;BMP280;2801;50.972;7.856;2023-04-27T01:40:26;97812.50;;;6.34
24201;BMP280;2801;50.972;7.856;2023-04-27T01:42:53;97806.41;;;6.34
24201;BMP280;2801;50.972;7.856;2023-04-27T01:45:21;97801.84;;;6.34
24201;BMP280;2801;50.972;7.856;2023-04-27T01:48:05;97796.22;;;6.36
24201;BMP280;2801;50.972;7.856;2023-04-27T01:50:32;97797.53;;;6.38
24201;BMP280;2801;50.972;7.856;2023-04-27T01:52:59;97805.22;;;6.40
24201;BMP280;2801;50.972;7.856;2023-04-27T01:55:26;97793.00;;;6.39
24201;BMP280;2801;50.972;7.856;2023-04-27T01:57:53;97797.59;;;6.33
24201;BMP280;2801;50.972;7.856;2023-04-27T02:00:38;97800.34;;;6.28
24201;BMP280;2801;50.972;7.856;2023-04-27T02:03:22;97805.16;;;6.26
24201;BMP280;2801;50.972;7.856;2023-04-27T02:05:49;97801.19;;;6.24
24201;BMP280;2801;50.972;7.856;2023-04-27T02:08:34;97808.06;;;6.30
24201;BMP280;2801;50.972;7.856;2023-04-27T02:11:01;97813.66;;;6.28
24201;BMP280;2801;50.972;7.856;2023-04-27T02:13:46;97805.72;;;6.23
24201;BMP280;2801;50.972;7.856;2023-04-27T02:16:13;97810.31;;;6.18
24201;BMP280;2801;50.972;7.856;2023-04-27T02:18:40;97813.56;;;6.15
24201;BMP280;2801;50.972;7.856;2023-04-27T02:21:08;97813.06;;;6.13
24201;BMP280;2801;50.972;7.856;2023-04-27T02:23:36;97816.22;;;6.15
24201;BMP280;2801;50.972;7.856;2023-04-27T02:26:03;97822.84;;;6.17
24201;BMP280;2801;50.972;7.856;2023-04-27T03:23:46;97796.47;;;5.97
24201;BMP280;2801;50.972;7.856;2023-04-27T03:26:14;97809.75;;;6.02
24201;BMP280;2801;50.972;7.856;2023-04-27T03:28:41;97813.47;;;6.01
24201;BMP280;2801;50.972;7.856;2023-04-27T03:31:11;97803.97;;;5.95
24201;BMP280;2801;50.972;7.856;2023-04-27T03:34:02;97799.56;;;5.86
24201;BMP280;2801;50.972;7.856;2023-04-27T03:36:29;97800.13;;;5.83
24201;BMP280;2801;50.972;7.856;2023-04-27T03:38:57;97794.56;;;5.79
24201;BMP280;2801;50.972;7.856;2023-04-27T03:41:24;97796.47;;;5.74
24201;BMP280;2801;50.972;7.856;2023-04-27T03:43:51;97804.28;;;5.65
24201;BMP280;2801;50.972;7.856;2023-04-27T03:46:19;97812.63;;;5.54
24201;BMP280;2801;50.972;7.856;2023-04-27T03:48:46;97800.66;;;5.28
24201;BMP280;2801;50.972;7.856;2023-04-27T03:51:13;97805.91;;;5.09
24201;BMP280;2801;50.972;7.856;2023-04-27T03:53:40;97804.34;;;5.03
24201;BMP280;2801;50.972;7.856;2023-04-27T03:56:07;97805.19;;;4.99
24201;BMP280;2801;50.972;7.856;2023-04-27T03:58:34;97808.69;;;4.94
24201;BMP280;2801;50.972;7.856;2023-04-27T04:01:01;97808.47;;;4.91
24201;BMP280;2801;50.972;7.856;2023-04-27T04:03:29;97810.88;;;4.87
24201;BMP280;2801;50.972;7.856;2023-04-27T04:05:56;97811.22;;;4.76
24201;BMP280;2801;50.972;7.856;2023-04-27T04:08:23;97818.19;;;4.67
24201;BMP280;2801;50.972;7.856;2023-04-27T04:10:50;97821.44;;;4.59
24201;BMP280;2801;50.972;7.856;2023-04-27T04:13:17;97822.53;;;4.53
24201;BMP280;2801;50.972;7.856;2023-04-27T04:15:44;97818.84;;;4.49
24201;BMP280;2801;50.972;7.856;2023-04-27T04:18:11;97810.38;;;4.47
24201;BMP280;2801;50.972;7.856;2023-04-27T04:20:38;97818.06;;;4.48
24201;BMP280;2801;50.972;7.856;2023-04-27T04:23:05;97820.72;;;4.48
24201;BMP280;2801;50.972;7.856;2023-04-27T04:25:32;97821.84;;;4.37
24201;BMP280;2801;50.972;7.856;2023-04-27T04:27:59;97824.53;;;4.32
24201;BMP280;2801;50.972;7.856;2023-04-27T04:30:26;97824.03;;;4.25
24201;BMP280;2801;50.972;7.856;2023-04-27T04:32:54;97831.44;;;4.23
24201;BMP280;2801;50.972;7.856;2023-04-27T04:35:21;97832.00;;;4.25
24201;BMP280;2801;50.972;7.856;2023-04-27T04:37:48;97841.78;;;4.25
24201;BMP280;2801;50.972;7.856;2023-04-27T04:40:15;97845.25;;;4.25
24201;BMP280;2801;50.972;7.856;2023-04-27T04:42:42;97847.13;;;4.20
24201;BMP280;2801;50.972;7.856;2023-04-27T04:45:09;97829.94;;;4.07
24201;BMP280;2801;50.972;7.856;2023-04-27T04:47:36;97848.75;;;4.16
24201;BMP280;2801;50.972;7.856;2023-04-27T04:50:06;97852.19;;;4.16
24201;BMP280;2801;50.972;7.856;2023-04-27T04:52:35;97851.59;;;4.24
24201;BMP280;2801;50.972;7.856;2023-04-27T04:55:03;97844.97;;;4.32
24201;BMP280;2801;50.972;7.856;2023-04-27T04:57:30;97850.72;;;4.44
24201;BMP280;2801;50.972;7.856;2023-04-27T04:59:57;97848.28;;;4.52
24201;BMP280;2801;50.972;7.856;2023-04-27T05:02:24;97847.94;;;4.64
24201;BMP280;2801;50.972;7.856;2023-04-27T05:04:51;97850.97;;;4.86
24201;BMP280;2801;50.972;7.856;2023-04-27T05:07:18;97847.75;;;5.27
24201;BMP280;2801;50.972;7.856;2023-04-27T05:09:50;97844.56;;;5.77
24201;BMP280;2801;50.972;7.856;2023-04-27T05:12:17;97851.25;;;6.22
24201;BMP280;2801;50.972;7.856;2023-04-27T05:14:44;97845.84;;;6.69
24201;BMP280;2801;50.972;7.856;2023-04-27T05:17:11;97846.63;;;7.20
24201;BMP280;2801;50.972;7.856;2023-04-27T05:19:38;97840.50;;;7.51
24201;BMP280;2801;50.972;7.856;2023-04-27T05:22:05;97835.41;;;7.68
24201;BMP280;2801;50.972;7.856;2023-04-27T05:24:33;97844.59;;;7.76
24201;BMP280;2801;50.972;7.856;2023-04-27T05:27:00;97840.94;;;7.72
24201;BMP280;2801;50.972;7.856;2023-04-27T05:29:28;97852.50;;;7.68
24201;BMP280;2801;50.972;7.856;2023-04-27T05:31:55;97851.81;;;7.62
24201;BMP280;2801;50.972;7.856;2023-04-27T05:34:22;97855.38;;;7.71
24201;BMP280;2801;50.972;7.856;2023-04-27T05:36:49;97852.59;;;7.90
24201;BMP280;2801;50.972;7.856;2023-04-27T05:39:16;97854.97;;;8.05
24201;BMP280;2801;50.972;7.856;2023-04-27T05:41:43;97859.03;;;8.16
24201;BMP280;2801;50.972;7.856;2023-04-27T05:44:10;97839.75;;;8.19
24201;BMP280;2801;50.972;7.856;2023-04-27T05:46:37;97851.34;;;8.41
24201;BMP280;2801;50.972;7.856;2023-04-27T05:49:04;97855.38;;;8.88
24201;BMP280;2801;50.972;7.856;2023-04-27T05:51:32;97854.66;;;9.18
24201;BMP280;2801;50.972;7.856;2023-04-27T05:53:59;97854.88;;;9.21
24201;BMP280;2801;50.972;7.856;2023-04-27T05:56:27;97859.25;;;9.17
24201;BMP280;2801;50.972;7.856;2023-04-27T05:58:54;97858.88;;;9.10
24201;BMP280;2801;50.972;7.856;2023-04-27T06:01:21;97861.09;;;8.95
24201;BMP280;2801;50.972;7.856;2023-04-27T06:03:49;97877.13;;;8.95
24201;BMP280;2801;50.972;7.856;2023-04-27T06:06:16;97871.75;;;9.08
24201;BMP280;2801;50.972;7.856;2023-04-27T06:08:43;97878.44;;;9.19
24201;BMP280;2801;50.972;7.856;2023-04-27T06:11:09;97872.13;;;9.15
24201;BMP280;2801;50.972;7.856;2023-04-27T06:13:36;97872.72;;;9.12
24201;BMP280;2801;50.972;7.856;2023-04-27T06:16:04;97871.50;;;9.18
24201;BMP280;2801;50.972;7.856;2023-04-27T06:18:31;97874.25;;;9.49
24201;BMP280;2801;50.972;7.856;2023-04-27T06:21:01;97876.06;;;9.62
24201;BMP280;2801;50.972;7.856;2023-04-27T06:23:28;97879.50;;;9.84
24201;BMP280;2801;50.972;7.856;2023-04-27T06:25:54;97880.03;;;10.34
24201;BMP280;2801;50.972;7.856;2023-04-27T06:28:21;97876.00;;;10.62
24201;BMP280;2801;50.972;7.856;2023-04-27T06:30:48;97882.00;;;10.76
24201;BMP280;2801;50.972;7.856;2023-04-27T06:33:15;97871.94;;;11.32
24201;BMP280;2801;50.972;7.856;2023-04-27T06:35:43;97875.66;;;11.83
24201;BMP280;2801;50.972;7.856;2023-04-27T06:38:13;97880.44;;;12.44
24201;BMP280;2801;50.972;7.856;2023-04-27T06:40:40;97883.72;;;13.28
24201;BMP280;2801;50.972;7.856;2023-04-27T06:43:07;97867.84;;;13.79
24201;BMP280;2801;50.972;7.856;2023-04-27T06:45:34;97864.84;;;13.93
24201;BMP280;2801;50.972;7.856;2023-04-27T06:48:02;97869.03;;;14.26
24201;BMP280;2801;50.972;7.856;2023-04-27T06:50:29;97866.25;;;14.47
24201;BMP280;2801;50.972;7.856;2023-04-27T06:52:56;97867.38;;;14.34
24201;BMP280;2801;50.972;7.856;2023-04-27T06:55:23;97865.13;;;14.24
24201;BMP280;2801;50.972;7.856;2023-04-27T06:57:50;97869.19;;;14.30
24201;BMP280;2801;50.972;7.856;2023-04-27T07:00:18;97866.94;;;14.44
24201;BMP280;2801;50.972;7.856;2023-04-27T07:02:45;97862.88;;;14.74
24201;BMP280;2801;50.972;7.856;2023-04-27T07:05:12;97863.66;;;15.14
24201;BMP280;2801;50.972;7.856;2023-04-27T07:07:39;97853.59;;;15.27
24201;BMP280;2801;50.972;7.856;2023-04-27T07:10:07;97857.22;;;15.58
24201;BMP280;2801;50.972;7.856;2023-04-27T07:12:36;97854.78;;;15.69
24201;BMP280;2801;50.972;7.856;2023-04-27T07:15:04;97841.63;;;15.67
24201;BMP280;2801;50.972;7.856;2023-04-27T07:17:32;97854.84;;;15.57
24201;BMP280;2801;50.972;7.856;2023-04-27T07:20:01;97853.84;;;15.49
24201;BMP280;2801;50.972;7.856;2023-04-27T07:22:29;97857.22;;;15.58
24201;BMP280;2801;50.972;7.856;2023-04-27T07:24:56;97848.88;;;15.79
24201;BMP280;2801;50.972;7.856;2023-04-27T07:27:23;97850.47;;;16.11
24201;BMP280;2801;50.972;7.856;2023-04-27T07:29:53;97847.75;;;16.26
24201;BMP280;2801;50.972;7.856;2023-04-27T07:32:20;97850.38;;;16.38
24201;BMP280;2801;50.972;7.856;2023-04-27T07:34:48;97841.50;;;17.07
24201;BMP280;2801;50.972;7.856;2023-04-27T07:37:20;97832.91;;;17.81
24201;BMP280;2801;50.972;7.856;2023-04-27T07:39:49;97828.69;;;18.29
24201;BMP280;2801;50.972;7.856;2023-04-27T07:42:19;97828.88;;;18.39
24201;BMP280;2801;50.972;7.856;2023-04-27T07:44:48;97828.75;;;18.09
24201;BMP280;2801;50.972;7.856;2023-04-27T07:47:16;97828.50;;;17.73
24201;BMP280;2801;50.972;7.856;2023-04-27T07:49:46;97819.16;;;17.70
24201;BMP280;2801;50.972;7.856;2023-04-27T07:52:14;97826.56;;;17.73
24201;BMP280;2801;50.972;7.856;2023-04-27T07:54:41;97818.44;;;17.96
24201;BMP280;2801;50.972;7.856;2023-04-27T07:57:09;97829.28;;;18.18
24201;BMP280;2801;50.972;7.856;2023-04-27T07:59:38;97828.66;;;18.51
24201;BMP280;2801;50.972;7.856;2023-04-27T08:02:05;97827.63;;;18.89
24201;BMP280;2801;50.972;7.856;2023-04-27T08:04:46;97818.66;;;18.85
24201;BMP280;2801;50.972;7.856;2023-04-27T08:07:15;97825.34;;;18.91
24201;BMP280;2801;50.972;7.856;2023-04-27T08:09:43;97818.34;;;19.19
24201;BMP280;2801;50.972;7.856;2023-04-27T08:12:10;97823.75;;;19.49
24201;BMP280;2801;50.972;7.856;2023-04-27T08:14:37;97815.59;;;19.85
24201;BMP280;2801;50.972;7.856;2023-04-27T08:17:04;97812.78;;;19.75
24201;BMP280;2801;50.972;7.856;2023-04-27T08:19:31;97820.41;;;19.62
24201;BMP280;2801;50.972;7.856;2023-04-27T08:21:59;97818.28;;;19.82
24201;BMP280;2801;50.972;7.856;2023-04-27T08:24:26;97815.53;;;19.78
24201;BMP280;2801;50.972;7.856;2023-04-27T08:26:53;97818.56;;;19.33
24201;BMP280;2801;50.972;7.856;2023-04-27T08:29:20;97818.91;;;19.32
24201;BMP280;2801;50.972;7.856;2023-04-27T08:31:58;97809.78;;;19.50
24201;BMP280;2801;50.972;7.856;2023-04-27T08:34:26;97815.75;;;19.63
24201;BMP280;2801;50.972;7.856;2023-04-27T08:36:53;97811.56;;;19.32
24201;BMP280;2801;50.972;7.856;2023-04-27T08:39:22;97810.91;;;19.13
24201;BMP280;2801;50.972;7.856;2023-04-27T08:41:49;97807.47;;;19.19
24201;BMP280;2801;50.972;7.856;2023-04-27T08:44:16;97813.59;;;19.42
24201;BMP280;2801;50.972;7.856;2023-04-27T08:46:43;97813.94;;;19.08
24201;BMP280;2801;50.972;7.856;2023-04-27T08:49:10;97807.91;;;18.66
24201;BMP280;2801;50.972;7.856;2023-04-27T08:51:41;97809.69;;;18.55
24201;BMP280;2801;50.972;7.856;2023-04-27T08:54:08;97812.31;;;18.74
24201;BMP280;2801;50.972;7.856;2023-04-27T08:56:35;97806.16;;;18.51
24201;BMP280;2801;50.972;7.856;2023-04-27T08:59:12;97805.13;;;18.10
24201;BMP280;2801;50.972;7.856;2023-04-27T09:01:48;97806.03;;;17.95
24201;BMP280;2801;50.972;7.856;2023-04-27T09:04:15;97809.03;;;17.90
24201;BMP280;2801;50.972;7.856;2023-04-27T09:06:44;97815.31;;;17.94
24201;BMP280;2801;50.972;7.856;2023-04-27T09:09:21;97807.38;;;18.31
24201;BMP280;2801;50.972;7.856;2023-04-27T09:11:49;97819.31;;;18.26
24201;BMP280;2801;50.972;7.856;2023-04-27T09:14:21;97808.41;;;18.45
24201;BMP280;2801;50.972;7.856;2023-04-27T09:16:56;97806.31;;;18.61
24201;BMP280;2801;50.972;7.856;2023-04-27T09:19:28;97803.97;;;18.60
24201;BMP280;2801;50.972;7.856;2023-04-27T09:22:08;97797.75;;;18.59
24201;BMP280;2801;50.972;7.856;2023-04-27T09:24:35;97795.09;;;18.63
24201;BMP280;2801;50.972;7.856;2023-04-27T09:27:03;97798.69;;;18.44
24201;BMP280;2801;50.972;7.856;2023-04-27T09:29:35;97803.25;;;18.14
24201;BMP280;2801;50.972;7.856;2023-04-27T09:32:17;97802.88;;;18.15
24201;BMP280;2801;50.972;7.856;2023-04-27T09:34:46;97794.16;;;18.52
24201;BMP280;2801;50.972;7.856;2023-04-27T09:37:13;97789.75;;;18.70
24201;BMP280;2801;50.972;7.856;2023-04-27T09:39:41;97794.06;;;19.04
24201;BMP280;2801;50.972;7.856;2023-04-27T09:42:10;97772.59;;;19.58
24201;BMP280;2801;50.972;7.856;2023-04-27T09:45:13;97771.28;;;19.85
24201;BMP280;2801;50.972;7.856;2023-04-27T09:51:55;97765.19;;;20.02
24201;BMP280;2801;50.972;7.856;2023-04-27T09:54:44;97757.25;;;19.83
24201;BMP280;2801;50.972;7.856;2023-04-27T10:01:51;97768.56;;;19.12
24201;BMP280;2801;50.972;7.856;2023-04-27T10:07:16;97752.94;;;19.35
24201;BMP280;2801;50.972;7.856;2023-04-27T10:09:50;97760.31;;;19.38
24201;BMP280;2801;50.972;7.856;2023-04-27T10:12:26;97773.53;;;19.39
24201;BMP280;2801;50.972;7.856;2023-04-27T10:15:15;97769.84;;;19.21
24201;BMP280;2801;50.972;7.856;2023-04-27T10:17:49;97773.25;;;18.82
24201;BMP280;2801;50.972;7.856;2023-04-27T10:20:16;97775.97;;;18.30
24201;BMP280;2801;50.972;7.856;2023-04-27T10:22:53;97774.63;;;17.94
24201;BMP280;2801;50.972;7.856;2023-04-27T10:25:50;97762.78;;;18.05
24201;BMP280;2801;50.972;7.856;2023-04-27T10:28:17;97760.19;;;18.35
24201;BMP280;2801;50.972;7.856;2023-04-27T10:30:47;97759.81;;;18.63
24201;BMP280;2801;50.972;7.856;2023-04-27T10:33:21;97767.75;;;18.49
24201;BMP280;2801;50.972;7.856;2023-04-27T10:35:57;97762.03;;;18.31
24201;BMP280;2801;50.972;7.856;2023-04-27T10:38:29;97749.44;;;18.42
24201;BMP280;2801;50.972;7.856;2023-04-27T10:40:59;97744.41;;;18.74
24201;BMP280;2801;50.972;7.856;2023-04-27T10:43:34;97740.59;;;18.78
24201;BMP280;2801;50.972;7.856;2023-04-27T10:46:14;97747.97;;;18.78
24201;BMP280;2801;50.972;7.856;2023-04-27T10:48:43;97744.25;;;18.60
24201;BMP280;2801;50.972;7.856;2023-04-27T10:51:15;97739.53;;;18.57
24201;BMP280;2801;50.972;7.856;2023-04-27T10:53:50;97738.47;;;18.65
24201;BMP280;2801;50.972;7.856;2023-04-27T10:56:18;97733.38;;;18.60
24201;BMP280;2801;50.972;7.856;2023-04-27T10:58:48;97737.44;;;18.47
24201;BMP280;2801;50.972;7.856;2023-04-27T11:01:50;97736.59;;;18.16
24201;BMP280;2801;50.972;7.856;2023-04-27T11:04:34;97736.81;;;18.04
24201;BMP280;2801;50.972;7.856;2023-04-27T11:07:27;97726.28;;;17.77
24201;BMP280;2801;50.972;7.856;2023-04-27T11:22:44;97715.97;;;16.61
24201;BMP280;2801;50.972;7.856;2023-04-27T11:25:12;97721.34;;;16.58
24201;BMP280;2801;50.972;7.856;2023-04-27T11:27:47;97722.59;;;16.83
24201;BMP280;2801;50.972;7.856;2023-04-27T11:30:19;97715.81;;;17.11
24201;BMP280;2801;50.972;7.856;2023-04-27T11:32:47;97713.19;;;17.15
24201;BMP280;2801;50.972;7.856;2023-04-27T11:35:17;97716.63;;;17.34
24201;BMP280;2801;50.972;7.856;2023-04-27T11:37:55;97708.88;;;17.55
24201;BMP280;2801;50.972;7.856;2023-04-27T11:40:23;97704.66;;;17.58
24201;BMP280;2801;50.972;7.856;2023-04-27T11:42:58;97708.56;;;17.60
24201;BMP280;2801;50.972;7.856;2023-04-27T11:45:26;97696.91;;;17.56
24201;BMP280;2801;50.972;7.856;2023-04-27T11:47:53;97703.81;;;17.54
24201;BMP280;2801;50.972;7.856;2023-04-27T11:50:23;97706.78;;;17.45
24201;BMP280;2801;50.972;7.856;2023-04-27T11:52:52;97704.34;;;17.40
24201;BMP280;2801;50.972;7.856;2023-04-27T11:55:22;97698.53;;;17.61
24201;BMP280;2801;50.972;7.856;2023-04-27T11:57:56;97704.47;;;17.70
24201;BMP280;2801;50.972;7.856;2023-04-27T12:00:24;97676.03;;;17.60
24201;BMP280;2801;50.972;7.856;2023-04-27T12:02:51;97691.59;;;17.63
24201;BMP280;2801;50.972;7.856;2023-04-27T12:05:46;97704.91;;;17.72
24201;BMP280;2801;50.972;7.856;2023-04-27T12:08:30;97705.91;;;17.86
24201;BMP280;2801;50.972;7.856;2023-04-27T12:10:57;97697.59;;;17.98
24201;BMP280;2801;50.972;7.856;2023-04-27T12:13:24;97695.50;;;17.88
24201;BMP280;2801;50.972;7.856;2023-04-27T12:16:09;97697.94;;;17.71
24201;BMP280;2801;50.972;7.856;2023-04-27T12:18:36;97699.47;;;17.72
24201;BMP280;2801;50.972;7.856;2023-04-27T12:21:03;97687.75;;;17.64
24201;BMP280;2801;50.972;7.856;2023-04-27T12:23:51;97689.06;;;17.74
24201;BMP280;2801;50.972;7.856;2023-04-27T12:26:35;97680.97;;;17.77
24201;BMP280;2801;50.972;7.856;2023-04-27T12:29:02;97683.16;;;17.68
24201;BMP280;2801;50.972;7.856;2023-04-27T12:31:30;97676.03;;;17.60
24201;BMP280;2801;50.972;7.856;2023-04-27T12:34:15;97674.56;;;17.63
24201;BMP280;2801;50.972;7.856;2023-04-27T12:36:59;97673.31;;;17.83
24201;BMP280;2801;50.972;7.856;2023-04-27T12:39:26;97675.66;;;18.10
24201;BMP280;2801;50.972;7.856;2023-04-27T12:41:53;97665.28;;;18.42
24201;BMP280;2801;50.972;7.856;2023-04-27T12:44:21;97659.72;;;18.65
24201;BMP280;2801;50.972;7.856;2023-04-27T12:46:48;97653.84;;;18.96
24201;BMP280;2801;50.972;7.856;2023-04-27T12:49:16;97660.88;;;18.97
24201;BMP280;2801;50.972;7.856;2023-04-27T12:51:43;97649.44;;;18.81
24201;BMP280;2801;50.972;7.856;2023-04-27T12:54:12;97649.41;;;18.77
24201;BMP280;2801;50.972;7.856;2023-04-27T12:56:39;97646.16;;;19.01
24201;BMP280;2801;50.972;7.856;2023-04-27T12:59:07;97645.31;;;19.34
24201;BMP280;2801;50.972;7.856;2023-04-27T13:01:52;97635.44;;;19.55
24201;BMP280;2801;50.972;7.856;2023-04-27T13:04:37;97637.88;;;19.71
24201;BMP280;2801;50.972;7.856;2023-04-27T13:07:04;97644.63;;;19.94
24201;BMP280;2801;50.972;7.856;2023-04-27T13:09:32;97628.09;;;20.20
24201;BMP280;2801;50.972;7.856;2023-04-27T13:11:59;97646.13;;;20.46
24201;BMP280;2801;50.972;7.856;2023-04-27T13:14:27;97638.38;;;20.62
24201;BMP280;2801;50.972;7.856;2023-04-27T13:16:54;97639.47;;;20.36
24201;BMP280;2801;50.972;7.856;2023-04-27T13:19:39;97643.84;;;19.94
24201;BMP280;2801;50.972;7.856;2023-04-27T13:22:06;97642.50;;;19.67
24201;BMP280;2801;50.972;7.856;2023-04-27T13:24:53;97639.09;;;19.77
24201;BMP280;2801;50.972;7.856;2023-04-27T13:27:19;97629.03;;;19.84
24201;BMP280;2801;50.972;7.856;2023-04-27T13:29:48;97627.19;;;19.99
24201;BMP280;2801;50.972;7.856;2023-04-27T13:32:34;97625.66;;;20.05
24201;BMP280;2801;50.972;7.856;2023-04-27T13:35:01;97627.63;;;20.08
24201;BMP280;2801;50.972;7.856;2023-04-27T13:37:28;97626.22;;;20.31
24201;BMP280;2801;50.972;7.856;2023-04-27T13:39:55;97623.97;;;20.54
24201;BMP280;2801;50.972;7.856;2023-04-27T13:42:22;97620.91;;;20.66
24201;BMP280;2801;50.972;7.856;2023-04-27T13:44:54;97619.31;;;20.58
24201;BMP280;2801;50.972;7.856;2023-04-27T13:47:24;97626.31;;;20.56
24201;BMP280;2801;50.972;7.856;2023-04-27T13:49:51;97627.47;;;20.51
24201;BMP280;2801;50.972;7.856;2023-04-27T13:52:18;97619.31;;;20.55
24201;BMP280;2801;50.972;7.856;2023-04-27T13:54:45;97623.63;;;20.63
24201;BMP280;2801;50.972;7.856;2023-04-27T13:57:11;97625.56;;;20.62
24201;BMP280;2801;50.972;7.856;2023-04-27T13:59:38;97612.69;;;20.45
24201;BMP280;2801;50.972;7.856;2023-04-27T14:02:06;97614.50;;;20.24
24201;BMP280;2801;50.972;7.856;2023-04-27T14:04:34;97596.84;;;19.93
24201;BMP280;2801;50.972;7.856;2023-04-27T14:07:01;97611.53;;;19.82
24201;BMP280;2801;50.972;7.856;2023-04-27T14:09:28;97607.94;;;19.71
24201;BMP280;2801;50.972;7.856;2023-04-27T14:11:55;97608.06;;;19.88
24201;BMP280;2801;50.972;7.856;2023-04-27T14:14:23;97612.06;;;20.08
24201;BMP280;2801;50.972;7.856;2023-04-27T14:16:52;97609.44;;;20.15
24201;BMP280;2801;50.972;7.856;2023-04-27T14:19:19;97612.97;;;20.30
24201;BMP280;2801;50.972;7.856;2023-04-27T14:21:50;97602.47;;;20.32
24201;BMP280;2801;50.972;7.856;2023-04-27T14:24:17;97606.47;;;20.52
24201;BMP280;2801;50.972;7.856;2023-04-27T14:26:44;97594.84;;;20.69
24201;BMP280;2801;50.972;7.856;2023-04-27T14:29:13;97598.38;;;20.80
24201;BMP280;2801;50.972;7.856;2023-04-27T14:31:41;97596.06;;;20.82
24201;BMP280;2801;50.972;7.856;2023-04-27T14:34:09;97592.16;;;20.90
24201;BMP280;2801;50.972;7.856;2023-04-27T14:36:36;97591.38;;;20.86
24201;BMP280;2801;50.972;7.856;2023-04-27T14:39:03;97596.09;;;20.96
24201;BMP280;2801;50.972;7.856;2023-04-27T14:41:32;97597.28;;;21.02
24201;BMP280;2801;50.972;7.856;2023-04-27T14:44:00;97585.63;;;21.12
24201;BMP280;2801;50.972;7.856;2023-04-27T14:46:48;97584.44;;;21.06
24201;BMP280;2801;50.972;7.856;2023-04-27T14:49:28;97588.72;;;21.00
24201;BMP280;2801;50.972;7.856;2023-04-27T14:51:56;97586.69;;;20.86
24201;BMP280;2801;50.972;7.856;2023-04-27T14:54:24;97579.28;;;20.73
24201;BMP280;2801;50.972;7.856;2023-04-27T14:56:51;97592.47;;;20.57
24201;BMP280;2801;50.972;7.856;2023-04-27T14:59:18;97589.38;;;20.55
24201;BMP280;2801;50.972;7.856;2023-04-27T15:01:45;97586.63;;;20.62
24201;BMP280;2801;50.972;7.856;2023-04-27T15:04:12;97577.66;;;20.44
24201;BMP280;2801;50.972;7.856;2023-04-27T15:06:39;97593.88;;;20.19
24201;BMP280;2801;50.972;7.856;2023-04-27T15:09:06;97588.34;;;20.05
24201;BMP280;2801;50.972;7.856;2023-04-27T15:11:33;97584.78;;;19.98
24201;BMP280;2801;50.972;7.856;2023-04-27T15:14:00;97581.59;;;19.78
24201;BMP280;2801;50.972;7.856;2023-04-27T15:16:27;97579.00;;;19.42
24201;BMP280;2801;50.972;7.856;2023-04-27T15:18:55;97572.56;;;19.20
24201;BMP280;2801;50.972;7.856;2023-04-27T15:21:22;97570.56;;;19.14
24201;BMP280;2801;50.972;7.856;2023-04-27T15:23:49;97564.34;;;19.13
24201;BMP280;2801;50.972;7.856;2023-04-27T15:26:15;97569.78;;;19.13
24201;BMP280;2801;50.972;7.856;2023-04-27T15:28:42;97561.56;;;19.03
24201;BMP280;2801;50.972;7.856;2023-04-27T15:31:09;97561.03;;;18.87
24201;BMP280;2801;50.972;7.856;2023-04-27T15:33:37;97568.81;;;18.88
24201;BMP280;2801;50.972;7.856;2023-04-27T15:36:04;97572.72;;;18.91
24201;BMP280;2801;50.972;7.856;2023-04-27T15:38:31;97569.19;;;18.90
24201;BMP280;2801;50.972;7.856;2023-04-27T15:40:58;97556.47;;;18.98
24201;BMP280;2801;50.972;7.856;2023-04-27T15:43:24;97558.91;;;19.10
24201;BMP280;2801;50.972;7.856;2023-04-27T15:45:52;97559.34;;;19.19
24201;BMP280;2801;50.972;7.856;2023-04-27T15:48:19;97556.19;;;19.13
24201;BMP280;2801;50.972;7.856;2023-04-27T15:50:46;97560.75;;;18.99
24201;BMP280;2801;50.972;7.856;2023-04-27T15:53:13;97567.56;;;18.79
24201;BMP280;2801;50.972;7.856;2023-04-27T15:55:40;97562.41;;;18.70
24201;BMP280;2801;50.972;7.856;2023-04-27T15:58:07;97559.31;;;18.68
24201;BMP280;2801;50.972;7.856;2023-04-27T16:00:34;97566.31;;;18.73